sensor_id;sensor_type;location;lat;lon;timestamp;P1;durP1;ratioP1;P2;durP2;ratioP2
1799;SDS011;919;48.274;12.292;2023-01-23T00:00:52;17.23;;;9.40;;
1799;SDS011;919;48.274;12.292;2023-01-23T00:03:19;15.63;;;8.70;;
1799;SDS011;919;48.274;12.292;2023-01-23T00:05:54;18.00;;;9.67;;
1799;SDS011;919;48.274;12.292;2023-01-23T00:08:22;16.67;;;9.33;;
1799;SDS011;919;48.274;12.292;2023-01-23T00:10:48;16.10;;;8.50;;
1799;SDS011;919;48.274;12.292;2023-01-23T00:13:15;14.57;;;8.30;;
1799;SDS011;919;48.274;12.292;2023-01-23T00:15:43;25.97;;;10.43;;
1799;SDS011;919;48.274;12.292;2023-01-23T00:18:10;16.40;;;9.43;;
1799;SDS011;919;48.274;12.292;2023-01-23T00:20:36;18.43;;;9.60;;
1799;SDS011;919;48.274;12.292;2023-01-23T00:23:03;17.50;;;10.07;;
1799;SDS011;919;48.274;12.292;2023-01-23T00:25:30;23.00;;;10.33;;
1799;SDS011;919;48.274;12.292;2023-01-23T00:27:58;19.80;;;10.33;;
1799;SDS011;919;48.274;12.292;2023-01-23T00:30:25;16.40;;;9.30;;
1799;SDS011;919;48.274;12.292;2023-01-23T00:32:53;24.40;;;11.07;;
1799;SDS011;919;48.274;12.292;2023-01-23T00:35:20;18.40;;;9.23;;
1799;SDS011;919;48.274;12.292;2023-01-23T00:37:46;16.90;;;10.23;;
1799;SDS011;919;48.274;12.292;2023-01-23T00:40:13;20.93;;;10.10;;
1799;SDS011;919;48.274;12.292;2023-01-23T00:42:40;16.90;;;9.57;;
1799;SDS011;919;48.274;12.292;2023-01-23T00:45:07;17.03;;;9.77;;
1799;SDS011;919;48.274;12.292;2023-01-23T00:47:33;15.70;;;8.43;;
1799;SDS011;919;48.274;12.292;2023-01-23T00:50:02;16.50;;;8.70;;
1799;SDS011;919;48.274;12.292;2023-01-23T00:52:28;22.10;;;10.50;;
1799;SDS011;919;48.274;12.292;2023-01-23T00:54:55;22.13;;;10.27;;
1799;SDS011;919;48.274;12.292;2023-01-23T00:57:22;22.20;;;10.47;;
1799;SDS011;919;48.274;12.292;2023-01-23T00:59:48;19.40;;;10.87;;
1799;SDS011;919;48.274;12.292;2023-01-23T01:02:15;22.97;;;11.53;;
1799;SDS011;919;48.274;12.292;2023-01-23T01:04:42;25.40;;;11.90;;
1799;SDS011;919;48.274;12.292;2023-01-23T01:07:10;19.03;;;9.43;;
1799;SDS011;919;48.274;12.292;2023-01-23T01:09:37;20.80;;;11.57;;
1799;SDS011;919;48.274;12.292;2023-01-23T01:12:03;23.47;;;10.80;;
1799;SDS011;919;48.274;12.292;2023-01-23T01:14:30;18.90;;;9.50;;
1799;SDS011;919;48.274;12.292;2023-01-23T01:16:57;23.60;;;11.27;;
1799;SDS011;919;48.274;12.292;2023-01-23T01:19:24;21.07;;;11.07;;
1799;SDS011;919;48.274;12.292;2023-01-23T01:21:52;15.70;;;9.47;;
1799;SDS011;919;48.274;12.292;2023-01-23T01:24:20;23.03;;;11.70;;
1799;SDS011;919;48.274;12.292;2023-01-23T01:26:46;20.70;;;10.07;;
1799;SDS011;919;48.274;12.292;2023-01-23T01:29:13;25.00;;;11.37;;
1799;SDS011;919;48.274;12.292;2023-01-23T01:31:40;21.83;;;10.73;;
1799;SDS011;919;48.274;12.292;2023-01-23T01:34:06;14.73;;;8.40;;
1799;SDS011;919;48.274;12.292;2023-01-23T01:36:33;18.57;;;9.90;;
1799;SDS011;919;48.274;12.292;2023-01-23T01:39:00;20.17;;;9.00;;
1799;SDS011;919;48.274;12.292;2023-01-23T01:41:28;17.90;;;8.90;;
1799;SDS011;919;48.274;12.292;2023-01-23T01:43:55;19.83;;;9.60;;
1799;SDS011;919;48.274;12.292;2023-01-23T01:46:24;16.33;;;9.03;;
1799;SDS011;919;48.274;12.292;2023-01-23T01:49:03;17.90;;;9.60;;
1799;SDS011;919;48.274;12.292;2023-01-23T01:51:33;16.60;;;8.37;;
1799;SDS011;919;48.274;12.292;2023-01-23T01:54:05;15.43;;;9.37;;
1799;SDS011;919;48.274;12.292;2023-01-23T01:56:41;22.70;;;9.50;;
1799;SDS011;919;48.274;12.292;2023-01-23T01:59:12;18.03;;;9.77;;
1799;SDS011;919;48.274;12.292;2023-01-23T02:01:40;16.93;;;9.30;;
1799;SDS011;919;48.274;12.292;2023-01-23T02:04:09;19.10;;;9.10;;
1799;SDS011;919;48.274;12.292;2023-01-23T02:06:36;17.60;;;10.23;;
1799;SDS011;919;48.274;12.292;2023-01-23T02:09:04;17.50;;;9.67;;
1799;SDS011;919;48.274;12.292;2023-01-23T02:11:35;18.80;;;9.03;;
1799;SDS011;919;48.274;12.292;2023-01-23T02:14:03;15.97;;;8.83;;
1799;SDS011;919;48.274;12.292;2023-01-23T02:16:32;19.27;;;9.83;;
1799;SDS011;919;48.274;12.292;2023-01-23T02:19:07;22.00;;;10.53;;
1799;SDS011;919;48.274;12.292;2023-01-23T02:21:49;15.63;;;9.77;;
1799;SDS011;919;48.274;12.292;2023-01-23T02:24:27;18.07;;;9.93;;
1799;SDS011;919;48.274;12.292;2023-01-23T02:27:00;20.30;;;10.57;;
1799;SDS011;919;48.274;12.292;2023-01-23T02:29:38;21.23;;;10.60;;
1799;SDS011;919;48.274;12.292;2023-01-23T02:32:05;17.67;;;9.47;;
1799;SDS011;919;48.274;12.292;2023-01-23T02:34:32;25.57;;;11.70;;
1799;SDS011;919;48.274;12.292;2023-01-23T02:36:59;16.70;;;9.00;;
1799;SDS011;919;48.274;12.292;2023-01-23T02:39:26;14.40;;;8.73;;
1799;SDS011;919;48.274;12.292;2023-01-23T02:41:52;18.90;;;9.77;;
1799;SDS011;919;48.274;12.292;2023-01-23T02:44:23;13.30;;;9.53;;
1799;SDS011;919;48.274;12.292;2023-01-23T02:46:51;17.40;;;10.30;;
1799;SDS011;919;48.274;12.292;2023-01-23T02:49:18;20.40;;;9.83;;
1799;SDS011;919;48.274;12.292;2023-01-23T02:51:45;22.00;;;11.80;;
1799;SDS011;919;48.274;12.292;2023-01-23T02:54:12;18.27;;;9.40;;
1799;SDS011;919;48.274;12.292;2023-01-23T02:56:39;23.17;;;10.80;;
1799;SDS011;919;48.274;12.292;2023-01-23T02:59:06;17.27;;;9.97;;
1799;SDS011;919;48.274;12.292;2023-01-23T03:01:52;19.70;;;10.70;;
1799;SDS011;919;48.274;12.292;2023-01-23T03:04:19;18.90;;;10.00;;
1799;SDS011;919;48.274;12.292;2023-01-23T03:06:45;19.87;;;10.07;;
1799;SDS011;919;48.274;12.292;2023-01-23T03:09:14;22.13;;;10.77;;
1799;SDS011;919;48.274;12.292;2023-01-23T03:11:42;21.30;;;10.33;;
1799;SDS011;919;48.274;12.292;2023-01-23T03:14:10;17.87;;;9.63;;
1799;SDS011;919;48.274;12.292;2023-01-23T03:16:39;18.70;;;9.73;;
1799;SDS011;919;48.274;12.292;2023-01-23T03:19:08;18.00;;;9.73;;
1799;SDS011;919;48.274;12.292;2023-01-23T03:21:36;18.63;;;9.60;;
1799;SDS011;919;48.274;12.292;2023-01-23T03:24:05;19.57;;;10.97;;
1799;SDS011;919;48.274;12.292;2023-01-23T03:26:32;21.00;;;9.83;;
1799;SDS011;919;48.274;12.292;2023-01-23T03:28:59;17.30;;;10.40;;
1799;SDS011;919;48.274;12.292;2023-01-23T03:31:44;20.90;;;10.80;;
1799;SDS011;919;48.274;12.292;2023-01-23T03:34:12;18.57;;;11.70;;
1799;SDS011;919;48.274;12.292;2023-01-23T03:36:38;23.30;;;11.30;;
1799;SDS011;919;48.274;12.292;2023-01-23T03:39:06;22.23;;;10.70;;
1799;SDS011;919;48.274;12.292;2023-01-23T03:41:51;21.87;;;12.17;;
1799;SDS011;919;48.274;12.292;2023-01-23T03:44:18;23.13;;;12.00;;
1799;SDS011;919;48.274;12.292;2023-01-23T03:46:45;23.17;;;10.90;;
1799;SDS011;919;48.274;12.292;2023-01-23T03:49:13;20.87;;;10.03;;
1799;SDS011;919;48.274;12.292;2023-01-23T03:51:40;23.10;;;10.57;;
1799;SDS011;919;48.274;12.292;2023-01-23T03:54:07;24.70;;;11.93;;
1799;SDS011;919;48.274;12.292;2023-01-23T03:56:34;21.53;;;12.13;;
1799;SDS011;919;48.274;12.292;2023-01-23T03:59:01;20.47;;;11.73;;
1799;SDS011;919;48.274;12.292;2023-01-23T04:01:27;20.93;;;10.70;;
1799;SDS011;919;48.274;12.292;2023-01-23T04:03:54;18.13;;;10.33;;
1799;SDS011;919;48.274;12.292;2023-01-23T04:06:22;21.07;;;11.73;;
1799;SDS011;919;48.274;12.292;2023-01-23T04:08:49;27.03;;;12.50;;
1799;SDS011;919;48.274;12.292;2023-01-23T04:11:16;25.97;;;11.97;;
1799;SDS011;919;48.274;12.292;2023-01-23T04:13:43;22.47;;;11.87;;
1799;SDS011;919;48.274;12.292;2023-01-23T04:16:11;24.47;;;13.33;;
1799;SDS011;919;48.274;12.292;2023-01-23T04:18:38;22.30;;;11.03;;
1799;SDS011;919;48.274;12.292;2023-01-23T04:21:05;25.00;;;12.47;;
1799;SDS011;919;48.274;12.292;2023-01-23T04:23:33;25.40;;;13.60;;
1799;SDS011;919;48.274;12.292;2023-01-23T04:25:59;19.67;;;11.00;;
1799;SDS011;919;48.274;12.292;2023-01-23T04:28:26;32.30;;;14.30;;
1799;SDS011;919;48.274;12.292;2023-01-23T04:30:53;21.80;;;11.77;;
1799;SDS011;919;48.274;12.292;2023-01-23T04:33:19;23.37;;;11.77;;
1799;SDS011;919;48.274;12.292;2023-01-23T04:35:50;23.50;;;12.40;;
1799;SDS011;919;48.274;12.292;2023-01-23T04:38:18;23.00;;;10.80;;
1799;SDS011;919;48.274;12.292;2023-01-23T04:40:46;22.47;;;13.23;;
1799;SDS011;919;48.274;12.292;2023-01-23T04:43:13;20.07;;;11.40;;
1799;SDS011;919;48.274;12.292;2023-01-23T04:45:40;25.20;;;12.33;;
1799;SDS011;919;48.274;12.292;2023-01-23T04:48:07;22.10;;;10.77;;
1799;SDS011;919;48.274;12.292;2023-01-23T04:50:34;18.77;;;9.77;;
1799;SDS011;919;48.274;12.292;2023-01-23T04:53:01;23.13;;;11.77;;
1799;SDS011;919;48.274;12.292;2023-01-23T04:55:28;21.47;;;11.10;;
1799;SDS011;919;48.274;12.292;2023-01-23T04:57:56;22.73;;;11.70;;
1799;SDS011;919;48.274;12.292;2023-01-23T05:00:23;18.27;;;10.70;;
1799;SDS011;919;48.274;12.292;2023-01-23T05:02:50;25.63;;;11.97;;
1799;SDS011;919;48.274;12.292;2023-01-23T05:05:17;24.60;;;12.30;;
1799;SDS011;919;48.274;12.292;2023-01-23T05:07:45;22.07;;;12.20;;
1799;SDS011;919;48.274;12.292;2023-01-23T05:10:12;24.17;;;12.07;;
1799;SDS011;919;48.274;12.292;2023-01-23T05:12:40;23.60;;;11.60;;
1799;SDS011;919;48.274;12.292;2023-01-23T05:15:09;20.20;;;11.23;;
1799;SDS011;919;48.274;12.292;2023-01-23T05:17:36;21.80;;;11.37;;
1799;SDS011;919;48.274;12.292;2023-01-23T05:20:03;20.90;;;11.60;;
1799;SDS011;919;48.274;12.292;2023-01-23T05:22:30;19.37;;;11.20;;
1799;SDS011;919;48.274;12.292;2023-01-23T05:24:57;21.40;;;11.80;;
1799;SDS011;919;48.274;12.292;2023-01-23T05:27:24;22.53;;;11.70;;
1799;SDS011;919;48.274;12.292;2023-01-23T05:29:51;24.60;;;12.60;;
1799;SDS011;919;48.274;12.292;2023-01-23T05:32:19;22.67;;;12.50;;
1799;SDS011;919;48.274;12.292;2023-01-23T05:34:45;27.00;;;13.33;;
1799;SDS011;919;48.274;12.292;2023-01-23T05:37:12;16.67;;;9.87;;
1799;SDS011;919;48.274;12.292;2023-01-23T05:39:39;24.33;;;12.23;;
1799;SDS011;919;48.274;12.292;2023-01-23T05:42:05;18.60;;;10.27;;
1799;SDS011;919;48.274;12.292;2023-01-23T05:44:32;18.57;;;10.23;;
1799;SDS011;919;48.274;12.292;2023-01-23T05:46:59;21.13;;;11.20;;
1799;SDS011;919;48.274;12.292;2023-01-23T05:49:27;20.47;;;10.77;;
1799;SDS011;919;48.274;12.292;2023-01-23T05:51:53;17.73;;;11.07;;
1799;SDS011;919;48.274;12.292;2023-01-23T05:54:20;22.77;;;11.53;;
1799;SDS011;919;48.274;12.292;2023-01-23T05:56:47;20.97;;;12.80;;
1799;SDS011;919;48.274;12.292;2023-01-23T05:59:13;16.63;;;10.33;;
1799;SDS011;919;48.274;12.292;2023-01-23T06:01:40;25.63;;;12.07;;
1799;SDS011;919;48.274;12.292;2023-01-23T06:04:06;23.30;;;12.57;;
1799;SDS011;919;48.274;12.292;2023-01-23T06:06:34;22.00;;;12.10;;
1799;SDS011;919;48.274;12.292;2023-01-23T06:09:01;23.77;;;13.07;;
1799;SDS011;919;48.274;12.292;2023-01-23T06:11:28;31.10;;;14.20;;
1799;SDS011;919;48.274;12.292;2023-01-23T06:13:54;23.97;;;12.27;;
1799;SDS011;919;48.274;12.292;2023-01-23T06:16:21;29.97;;;13.80;;
1799;SDS011;919;48.274;12.292;2023-01-23T06:18:48;20.03;;;11.57;;
1799;SDS011;919;48.274;12.292;2023-01-23T06:21:14;19.33;;;10.60;;
1799;SDS011;919;48.274;12.292;2023-01-23T06:23:43;21.73;;;11.97;;
1799;SDS011;919;48.274;12.292;2023-01-23T06:26:11;21.00;;;11.90;;
1799;SDS011;919;48.274;12.292;2023-01-23T06:28:38;22.00;;;12.20;;
1799;SDS011;919;48.274;12.292;2023-01-23T06:31:05;22.77;;;10.83;;
1799;SDS011;919;48.274;12.292;2023-01-23T06:33:34;20.53;;;12.13;;
1799;SDS011;919;48.274;12.292;2023-01-23T06:36:01;21.47;;;12.43;;
1799;SDS011;919;48.274;12.292;2023-01-23T06:38:30;22.17;;;11.87;;
1799;SDS011;919;48.274;12.292;2023-01-23T06:40:58;24.17;;;12.60;;
1799;SDS011;919;48.274;12.292;2023-01-23T06:43:25;24.13;;;13.80;;
1799;SDS011;919;48.274;12.292;2023-01-23T06:45:52;27.50;;;12.93;;
1799;SDS011;919;48.274;12.292;2023-01-23T06:48:19;23.20;;;11.77;;
1799;SDS011;919;48.274;12.292;2023-01-23T06:50:46;20.07;;;11.77;;
1799;SDS011;919;48.274;12.292;2023-01-23T06:53:13;21.63;;;11.10;;
1799;SDS011;919;48.274;12.292;2023-01-23T06:55:41;23.47;;;12.90;;
1799;SDS011;919;48.274;12.292;2023-01-23T06:58:09;28.50;;;12.40;;
1799;SDS011;919;48.274;12.292;2023-01-23T07:00:36;19.60;;;11.20;;
1799;SDS011;919;48.274;12.292;2023-01-23T07:03:03;22.60;;;11.07;;
1799;SDS011;919;48.274;12.292;2023-01-23T07:05:30;23.50;;;12.60;;
1799;SDS011;919;48.274;12.292;2023-01-23T07:08:01;22.60;;;10.90;;
1799;SDS011;919;48.274;12.292;2023-01-23T07:10:27;23.53;;;11.87;;
1799;SDS011;919;48.274;12.292;2023-01-23T07:12:56;16.77;;;10.33;;
1799;SDS011;919;48.274;12.292;2023-01-23T07:15:24;22.63;;;12.37;;
1799;SDS011;919;48.274;12.292;2023-01-23T07:17:51;20.43;;;11.27;;
1799;SDS011;919;48.274;12.292;2023-01-23T07:20:18;24.50;;;11.80;;
1799;SDS011;919;48.274;12.292;2023-01-23T07:22:44;22.30;;;11.37;;
1799;SDS011;919;48.274;12.292;2023-01-23T07:25:11;20.47;;;11.30;;
1799;SDS011;919;48.274;12.292;2023-01-23T07:27:38;22.23;;;11.47;;
1799;SDS011;919;48.274;12.292;2023-01-23T07:30:05;25.00;;;11.70;;
1799;SDS011;919;48.274;12.292;2023-01-23T07:32:34;27.43;;;13.27;;
1799;SDS011;919;48.274;12.292;2023-01-23T07:35:01;24.33;;;12.77;;
1799;SDS011;919;48.274;12.292;2023-01-23T07:37:27;23.87;;;12.00;;
1799;SDS011;919;48.274;12.292;2023-01-23T07:39:54;22.13;;;12.87;;
1799;SDS011;919;48.274;12.292;2023-01-23T07:42:21;23.63;;;12.43;;
1799;SDS011;919;48.274;12.292;2023-01-23T07:44:47;26.67;;;12.87;;
1799;SDS011;919;48.274;12.292;2023-01-23T07:47:14;20.73;;;11.60;;
1799;SDS011;919;48.274;12.292;2023-01-23T07:49:42;23.57;;;11.90;;
1799;SDS011;919;48.274;12.292;2023-01-23T07:52:09;21.90;;;11.50;;
1799;SDS011;919;48.274;12.292;2023-01-23T07:54:36;23.40;;;13.00;;
1799;SDS011;919;48.274;12.292;2023-01-23T07:57:02;19.40;;;11.13;;
1799;SDS011;919;48.274;12.292;2023-01-23T07:59:29;24.00;;;12.93;;
1799;SDS011;919;48.274;12.292;2023-01-23T08:01:56;20.50;;;11.97;;
1799;SDS011;919;48.274;12.292;2023-01-23T08:04:23;21.67;;;12.57;;
1799;SDS011;919;48.274;12.292;2023-01-23T08:06:51;26.63;;;12.30;;
1799;SDS011;919;48.274;12.292;2023-01-23T08:09:17;21.80;;;13.73;;
1799;SDS011;919;48.274;12.292;2023-01-23T08:11:44;20.90;;;13.40;;
1799;SDS011;919;48.274;12.292;2023-01-23T08:14:11;29.53;;;13.73;;
1799;SDS011;919;48.274;12.292;2023-01-23T08:16:38;22.60;;;13.43;;
1799;SDS011;919;48.274;12.292;2023-01-23T08:19:05;24.33;;;11.97;;
1799;SDS011;919;48.274;12.292;2023-01-23T08:21:32;26.87;;;14.07;;
1799;SDS011;919;48.274;12.292;2023-01-23T08:24:01;22.60;;;13.43;;
1799;SDS011;919;48.274;12.292;2023-01-23T08:26:28;19.33;;;12.07;;
1799;SDS011;919;48.274;12.292;2023-01-23T08:28:55;23.13;;;12.13;;
1799;SDS011;919;48.274;12.292;2023-01-23T08:31:22;26.27;;;13.57;;
1799;SDS011;919;48.274;12.292;2023-01-23T08:33:48;21.70;;;12.50;;
1799;SDS011;919;48.274;12.292;2023-01-23T08:36:15;23.33;;;13.13;;
1799;SDS011;919;48.274;12.292;2023-01-23T08:38:42;23.30;;;11.83;;
1799;SDS011;919;48.274;12.292;2023-01-23T08:41:10;23.20;;;12.57;;
1799;SDS011;919;48.274;12.292;2023-01-23T08:43:37;20.80;;;12.50;;
1799;SDS011;919;48.274;12.292;2023-01-23T08:46:05;22.77;;;12.40;;
1799;SDS011;919;48.274;12.292;2023-01-23T08:48:33;22.20;;;12.00;;
1799;SDS011;919;48.274;12.292;2023-01-23T08:51:01;23.80;;;12.40;;
1799;SDS011;919;48.274;12.292;2023-01-23T08:53:29;24.03;;;12.90;;
1799;SDS011;919;48.274;12.292;2023-01-23T08:55:59;21.30;;;11.70;;
1799;SDS011;919;48.274;12.292;2023-01-23T08:58:28;27.47;;;12.10;;
1799;SDS011;919;48.274;12.292;2023-01-23T09:00:54;19.23;;;10.77;;
1799;SDS011;919;48.274;12.292;2023-01-23T09:03:21;18.97;;;11.30;;
1799;SDS011;919;48.274;12.292;2023-01-23T09:05:48;25.90;;;11.60;;
1799;SDS011;919;48.274;12.292;2023-01-23T09:08:15;17.83;;;11.40;;
1799;SDS011;919;48.274;12.292;2023-01-23T09:10:42;21.60;;;11.73;;
1799;SDS011;919;48.274;12.292;2023-01-23T09:13:09;20.20;;;12.30;;
1799;SDS011;919;48.274;12.292;2023-01-23T09:15:37;20.53;;;11.50;;
1799;SDS011;919;48.274;12.292;2023-01-23T09:18:04;22.10;;;11.53;;
1799;SDS011;919;48.274;12.292;2023-01-23T09:20:31;22.83;;;12.50;;
1799;SDS011;919;48.274;12.292;2023-01-23T09:22:58;25.67;;;11.90;;
1799;SDS011;919;48.274;12.292;2023-01-23T09:25:25;25.47;;;11.93;;
1799;SDS011;919;48.274;12.292;2023-01-23T09:27:52;22.87;;;11.63;;
1799;SDS011;919;48.274;12.292;2023-01-23T09:30:18;19.40;;;11.70;;
1799;SDS011;919;48.274;12.292;2023-01-23T09:32:46;19.97;;;11.43;;
1799;SDS011;919;48.274;12.292;2023-01-23T09:35:13;21.73;;;11.70;;
1799;SDS011;919;48.274;12.292;2023-01-23T09:37:40;22.77;;;11.93;;
1799;SDS011;919;48.274;12.292;2023-01-23T09:40:25;20.20;;;11.13;;
1799;SDS011;919;48.274;12.292;2023-01-23T09:42:55;18.23;;;10.87;;
1799;SDS011;919;48.274;12.292;2023-01-23T09:45:27;20.30;;;12.73;;
1799;SDS011;919;48.274;12.292;2023-01-23T09:47:58;20.70;;;11.07;;
1799;SDS011;919;48.274;12.292;2023-01-23T09:50:42;23.00;;;11.47;;
1799;SDS011;919;48.274;12.292;2023-01-23T09:53:19;19.73;;;11.53;;
1799;SDS011;919;48.274;12.292;2023-01-23T09:55:52;22.03;;;11.40;;
1799;SDS011;919;48.274;12.292;2023-01-23T09:58:24;19.93;;;11.60;;
1799;SDS011;919;48.274;12.292;2023-01-23T10:00:55;23.90;;;12.37;;
1799;SDS011;919;48.274;12.292;2023-01-23T10:03:25;25.40;;;11.17;;
1799;SDS011;919;48.274;12.292;2023-01-23T10:05:58;24.00;;;12.20;;
1799;SDS011;919;48.274;12.292;2023-01-23T10:08:33;20.27;;;11.50;;
1799;SDS011;919;48.274;12.292;2023-01-23T10:11:09;19.13;;;10.73;;
1799;SDS011;919;48.274;12.292;2023-01-23T10:13:49;23.00;;;11.40;;
1799;SDS011;919;48.274;12.292;2023-01-23T10:16:37;20.20;;;10.73;;
1799;SDS011;919;48.274;12.292;2023-01-23T10:19:21;19.20;;;10.83;;
1799;SDS011;919;48.274;12.292;2023-01-23T10:22:01;14.90;;;9.50;;
1799;SDS011;919;48.274;12.292;2023-01-23T10:24:38;18.70;;;9.80;;
1799;SDS011;919;48.274;12.292;2023-01-23T10:27:15;18.10;;;10.47;;
1799;SDS011;919;48.274;12.292;2023-01-23T10:29:44;17.10;;;10.40;;
1799;SDS011;919;48.274;12.292;2023-01-23T10:32:23;14.20;;;9.00;;
1799;SDS011;919;48.274;12.292;2023-01-23T10:34:54;16.70;;;10.50;;
1799;SDS011;919;48.274;12.292;2023-01-23T10:37:34;17.57;;;10.33;;
1799;SDS011;919;48.274;12.292;2023-01-23T10:40:10;14.63;;;8.90;;
1799;SDS011;919;48.274;12.292;2023-01-23T10:42:38;21.20;;;10.83;;
1799;SDS011;919;48.274;12.292;2023-01-23T10:45:05;20.17;;;10.87;;
1799;SDS011;919;48.274;12.292;2023-01-23T10:47:40;21.73;;;11.80;;
1799;SDS011;919;48.274;12.292;2023-01-23T10:50:09;17.27;;;8.90;;
1799;SDS011;919;48.274;12.292;2023-01-23T10:52:38;16.70;;;9.87;;
1799;SDS011;919;48.274;12.292;2023-01-23T10:57:53;16.37;;;10.73;;
1799;SDS011;919;48.274;12.292;2023-01-23T11:00:23;14.33;;;8.53;;
1799;SDS011;919;48.274;12.292;2023-01-23T11:02:52;19.40;;;10.60;;
1799;SDS011;919;48.274;12.292;2023-01-23T11:05:37;16.60;;;10.30;;
1799;SDS011;919;48.274;12.292;2023-01-23T11:08:20;20.70;;;12.40;;
1799;SDS011;919;48.274;12.292;2023-01-23T11:10:49;26.50;;;12.90;;
1799;SDS011;919;48.274;12.292;2023-01-23T11:13:20;15.70;;;11.30;;
1799;SDS011;919;48.274;12.292;2023-01-23T11:15:52;22.63;;;11.43;;
1799;SDS011;919;48.274;12.292;2023-01-23T11:18:28;20.33;;;12.10;;
1799;SDS011;919;48.274;12.292;2023-01-23T11:20:59;19.57;;;10.50;;
1799;SDS011;919;48.274;12.292;2023-01-23T11:23:26;20.43;;;10.70;;
1799;SDS011;919;48.274;12.292;2023-01-23T11:25:56;20.90;;;11.40;;
1799;SDS011;919;48.274;12.292;2023-01-23T11:28:23;21.80;;;11.47;;
1799;SDS011;919;48.274;12.292;2023-01-23T11:30:55;20.13;;;11.43;;
1799;SDS011;919;48.274;12.292;2023-01-23T11:33:33;20.30;;;11.03;;
1799;SDS011;919;48.274;12.292;2023-01-23T11:36:10;18.07;;;11.40;;
1799;SDS011;919;48.274;12.292;2023-01-23T11:38:48;19.60;;;11.33;;
1799;SDS011;919;48.274;12.292;2023-01-23T11:41:19;18.83;;;10.87;;
1799;SDS011;919;48.274;12.292;2023-01-23T11:43:52;19.30;;;11.07;;
1799;SDS011;919;48.274;12.292;2023-01-23T11:46:23;18.53;;;11.77;;
1799;SDS011;919;48.274;12.292;2023-01-23T11:52:08;22.07;;;11.67;;
1799;SDS011;919;48.274;12.292;2023-01-23T11:54:55;20.50;;;11.67;;
1799;SDS011;919;48.274;12.292;2023-01-23T11:57:38;15.80;;;10.67;;
1799;SDS011;919;48.274;12.292;2023-01-23T12:00:20;17.87;;;9.70;;
1799;SDS011;919;48.274;12.292;2023-01-23T12:06:00;19.80;;;10.97;;
1799;SDS011;919;48.274;12.292;2023-01-23T12:08:39;20.50;;;11.67;;
1799;SDS011;919;48.274;12.292;2023-01-23T12:11:13;20.90;;;11.23;;
1799;SDS011;919;48.274;12.292;2023-01-23T12:16:36;18.23;;;11.27;;
1799;SDS011;919;48.274;12.292;2023-01-23T12:19:20;17.27;;;10.10;;
1799;SDS011;919;48.274;12.292;2023-01-23T12:21:59;17.17;;;10.80;;
1799;SDS011;919;48.274;12.292;2023-01-23T12:24:40;20.30;;;11.17;;
1799;SDS011;919;48.274;12.292;2023-01-23T12:27:21;17.47;;;10.60;;
1799;SDS011;919;48.274;12.292;2023-01-23T12:32:52;19.27;;;11.37;;
1799;SDS011;919;48.274;12.292;2023-01-23T12:35:34;15.60;;;10.20;;
1799;SDS011;919;48.274;12.292;2023-01-23T12:38:20;19.93;;;11.20;;
1799;SDS011;919;48.274;12.292;2023-01-23T12:40:53;15.90;;;11.13;;
1799;SDS011;919;48.274;12.292;2023-01-23T12:43:33;19.20;;;10.20;;
1799;SDS011;919;48.274;12.292;2023-01-23T12:46:07;24.13;;;11.90;;
1799;SDS011;919;48.274;12.292;2023-01-23T12:48:38;17.10;;;10.57;;
1799;SDS011;919;48.274;12.292;2023-01-23T12:51:09;17.77;;;11.60;;
1799;SDS011;919;48.274;12.292;2023-01-23T12:53:40;19.00;;;10.87;;
1799;SDS011;919;48.274;12.292;2023-01-23T12:56:12;15.47;;;10.37;;
1799;SDS011;919;48.274;12.292;2023-01-23T12:58:44;18.73;;;10.67;;
1799;SDS011;919;48.274;12.292;2023-01-23T13:01:27;16.43;;;9.47;;
1799;SDS011;919;48.274;12.292;2023-01-23T13:04:10;13.90;;;9.47;;
1799;SDS011;919;48.274;12.292;2023-01-23T13:06:59;16.53;;;9.70;;
1799;SDS011;919;48.274;12.292;2023-01-23T13:09:35;16.60;;;8.70;;
1799;SDS011;919;48.274;12.292;2023-01-23T13:12:14;14.57;;;9.67;;
1799;SDS011;919;48.274;12.292;2023-01-23T13:14:45;16.83;;;9.57;;
1799;SDS011;919;48.274;12.292;2023-01-23T13:17:27;15.37;;;9.00;;
1799;SDS011;919;48.274;12.292;2023-01-23T13:20:09;15.30;;;9.33;;
1799;SDS011;919;48.274;12.292;2023-01-23T13:23:22;16.07;;;8.93;;
1799;SDS011;919;48.274;12.292;2023-01-23T13:26:22;14.80;;;9.17;;
1799;SDS011;919;48.274;12.292;2023-01-23T13:28:54;16.70;;;10.20;;
1799;SDS011;919;48.274;12.292;2023-01-23T13:31:36;13.70;;;8.80;;
1799;SDS011;919;48.274;12.292;2023-01-23T13:37:30;16.50;;;9.83;;
1799;SDS011;919;48.274;12.292;2023-01-23T13:40:19;16.30;;;8.77;;
1799;SDS011;919;48.274;12.292;2023-01-23T13:42:48;13.83;;;9.40;;
1799;SDS011;919;48.274;12.292;2023-01-23T13:45:24;12.17;;;8.40;;
1799;SDS011;919;48.274;12.292;2023-01-23T13:51:16;16.63;;;9.57;;
1799;SDS011;919;48.274;12.292;2023-01-23T13:53:45;16.60;;;9.93;;
1799;SDS011;919;48.274;12.292;2023-01-23T13:56:31;15.37;;;10.23;;
1799;SDS011;919;48.274;12.292;2023-01-23T13:59:08;15.40;;;10.47;;
1799;SDS011;919;48.274;12.292;2023-01-23T14:01:43;16.03;;;9.60;;
1799;SDS011;919;48.274;12.292;2023-01-23T14:04:33;15.97;;;9.70;;
1799;SDS011;919;48.274;12.292;2023-01-23T14:07:22;17.30;;;9.70;;
1799;SDS011;919;48.274;12.292;2023-01-23T14:10:09;15.00;;;9.70;;
1799;SDS011;919;48.274;12.292;2023-01-23T14:12:42;19.87;;;9.90;;
1799;SDS011;919;48.274;12.292;2023-01-23T14:15:21;17.73;;;9.70;;
1799;SDS011;919;48.274;12.292;2023-01-23T14:18:24;17.77;;;10.17;;
1799;SDS011;919;48.274;12.292;2023-01-23T14:20:58;17.17;;;9.60;;
1799;SDS011;919;48.274;12.292;2023-01-23T14:23:28;11.83;;;8.50;;
1799;SDS011;919;48.274;12.292;2023-01-23T14:25:57;16.70;;;10.33;;
1799;SDS011;919;48.274;12.292;2023-01-23T14:28:25;19.80;;;10.40;;
1799;SDS011;919;48.274;12.292;2023-01-23T14:30:56;21.30;;;9.73;;
1799;SDS011;919;48.274;12.292;2023-01-23T14:33:26;16.80;;;9.53;;
1799;SDS011;919;48.274;12.292;2023-01-23T14:35:53;23.60;;;11.07;;
1799;SDS011;919;48.274;12.292;2023-01-23T14:38:23;16.37;;;10.50;;
1799;SDS011;919;48.274;12.292;2023-01-23T14:40:54;17.00;;;10.23;;
1799;SDS011;919;48.274;12.292;2023-01-23T14:43:21;19.47;;;10.67;;
1799;SDS011;919;48.274;12.292;2023-01-23T14:45:51;19.67;;;10.80;;
1799;SDS011;919;48.274;12.292;2023-01-23T14:48:25;20.60;;;12.00;;
1799;SDS011;919;48.274;12.292;2023-01-23T14:51:00;21.50;;;12.47;;
1799;SDS011;919;48.274;12.292;2023-01-23T14:53:33;18.10;;;10.60;;
1799;SDS011;919;48.274;12.292;2023-01-23T14:56:05;19.27;;;10.83;;
1799;SDS011;919;48.274;12.292;2023-01-23T14:58:33;21.83;;;11.33;;
1799;SDS011;919;48.274;12.292;2023-01-23T15:01:01;23.67;;;12.03;;
1799;SDS011;919;48.274;12.292;2023-01-23T15:03:37;22.97;;;13.00;;
1799;SDS011;919;48.274;12.292;2023-01-23T15:06:06;21.20;;;10.73;;
1799;SDS011;919;48.274;12.292;2023-01-23T15:08:38;22.73;;;10.60;;
1799;SDS011;919;48.274;12.292;2023-01-23T15:11:06;16.83;;;10.67;;
1799;SDS011;919;48.274;12.292;2023-01-23T15:13:39;22.97;;;12.73;;
1799;SDS011;919;48.274;12.292;2023-01-23T15:16:10;19.47;;;11.30;;
1799;SDS011;919;48.274;12.292;2023-01-23T15:18:44;21.87;;;11.57;;
1799;SDS011;919;48.274;12.292;2023-01-23T15:21:25;30.57;;;13.83;;
1799;SDS011;919;48.274;12.292;2023-01-23T15:23:58;21.63;;;11.87;;
1799;SDS011;919;48.274;12.292;2023-01-23T15:26:31;20.47;;;11.53;;
1799;SDS011;919;48.274;12.292;2023-01-23T15:28:59;25.70;;;11.90;;
1799;SDS011;919;48.274;12.292;2023-01-23T15:31:28;23.93;;;11.80;;